createdAt,value
2019-04-01T00:02:13.049Z,72.52
2019-04-01T00:04:41.051Z,72.35
2019-04-01T00:07:09.104Z,72.77
2019-04-01T00:09:37.317Z,73.04
2019-04-01T00:12:05.278Z,73.03
2019-04-01T00:14:33.295Z,73.30
2019-04-01T00:17:01.443Z,73.63
2019-04-01T00:19:29.504Z,73.95
2019-04-01T00:21:57.704Z,74.23
2019-04-01T00:24:25.584Z,74.53
2019-04-01T00:26:53.646Z,74.71
2019-04-01T00:29:21.620Z,75.06
2019-04-01T00:31:49.752Z,74.90
2019-04-01T00:34:17.963Z,74.98
2019-04-01T00:36:45.970Z,75.80
2019-04-01T00:39:14.004Z,75.85
2019-04-01T00:41:53.015Z,76.20
2019-04-01T00:44:21.019Z,75.94
2019-04-01T00:46:49.069Z,75.69
2019-04-01T00:49:17.064Z,75.77
2019-04-01T00:51:45.167Z,75.88
2019-04-01T00:54:13.205Z,75.90
2019-04-01T00:56:41.110Z,76.11
2019-04-01T00:59:09.101Z,76.30
2019-04-01T01:01:37.148Z,76.12
2019-04-01T01:04:05.174Z,76.25
2019-04-01T01:06:33.196Z,76.36
2019-04-01T01:09:01.290Z,76.51
2019-04-01T01:11:30.990Z,76.55
2019-04-01T01:13:58.812Z,76.44
2019-04-01T01:16:26.633Z,76.26
2019-04-01T01:18:54.859Z,76.22
2019-04-01T01:21:22.866Z,76.49
2019-04-01T01:23:52.075Z,77.07
2019-04-01T01:26:20.033Z,77.01
2019-04-01T01:28:47.920Z,76.58
2019-04-01T01:31:15.761Z,76.78
2019-04-01T01:33:43.724Z,76.79
2019-04-01T01:36:11.463Z,76.84
2019-04-01T01:38:39.383Z,77.04
2019-04-01T01:41:07.339Z,76.47
2019-04-01T01:43:35.328Z,76.43
2019-04-01T01:46:03.265Z,77.08
2019-04-01T01:48:31.319Z,77.15
2019-04-01T01:50:59.315Z,77.47
2019-04-01T01:53:27.337Z,77.58
2019-04-01T01:55:55.266Z,77.75
2019-04-01T01:58:23.361Z,77.71
2019-04-01T02:00:52.696Z,77.76
2019-04-01T02:03:20.757Z,77.90
2019-04-01T02:05:48.553Z,78.20
2019-04-01T02:08:16.540Z,78.07
2019-04-01T02:10:44.508Z,78.18
2019-04-01T02:13:12.506Z,78.04
2019-04-01T02:15:40.501Z,78.19
2019-04-01T02:18:08.544Z,77.90
2019-04-01T02:20:36.644Z,78.40
2019-04-01T02:23:04.574Z,78.77
2019-04-01T02:25:32.643Z,78.96
2019-04-01T02:28:00.634Z,79.44
2019-04-01T02:30:28.625Z,79.40
2019-04-01T02:32:56.580Z,79.78
2019-04-01T02:35:24.466Z,79.66
2019-04-01T02:37:52.387Z,79.60
2019-04-01T02:40:22.186Z,79.63
2019-04-01T02:42:50.431Z,79.43
2019-04-01T02:45:18.304Z,79.67
2019-04-01T02:47:46.319Z,79.67
2019-04-01T02:50:14.374Z,79.78
2019-04-01T02:52:42.259Z,79.86
2019-04-01T02:55:10.555Z,80.07
2019-04-01T02:57:38.639Z,80.20
2019-04-01T03:00:06.836Z,80.20
2019-04-01T03:02:34.993Z,79.89
2019-04-01T03:05:03.274Z,79.93
2019-04-01T03:07:31.273Z,79.86
2019-04-01T03:09:59.615Z,80.23
2019-04-01T03:12:27.603Z,80.26
2019-04-01T03:14:55.790Z,80.46
2019-04-01T03:17:24.052Z,80.57
2019-04-01T03:19:51.940Z,80.57
2019-04-01T03:22:19.987Z,80.57
2019-04-01T03:24:48.115Z,80.76
2019-04-01T03:27:17.403Z,80.87
2019-04-01T03:29:45.862Z,81.11
2019-04-01T03:32:13.944Z,81.22
2019-04-01T03:34:42.169Z,81.25
2019-04-01T03:37:10.451Z,81.26
2019-04-01T03:39:38.510Z,81.41
2019-04-01T03:42:06.511Z,81.42
2019-04-01T03:44:34.339Z,80.80
2019-04-01T03:47:03.251Z,80.82
2019-04-01T03:49:31.129Z,80.92
2019-04-01T03:51:59.194Z,81.41
2019-04-01T03:54:27.217Z,81.72
2019-04-01T03:56:55.233Z,81.55
2019-04-01T03:59:23.158Z,81.56
2019-04-01T04:01:51.366Z,81.26
2019-04-01T04:04:19.142Z,81.19
2019-04-01T04:06:47.217Z,81.34
2019-04-01T04:09:15.495Z,81.92
2019-04-01T04:11:43.368Z,82.01
2019-04-01T04:14:11.280Z,81.15
2019-04-01T04:16:39.308Z,81.15
2019-04-01T04:19:07.475Z,80.46
2019-04-01T04:21:35.283Z,80.62
2019-04-01T04:24:03.413Z,80.92
2019-04-01T04:26:31.278Z,81.00
2019-04-01T04:28:59.361Z,81.11
2019-04-01T04:31:27.188Z,80.83
2019-04-01T04:33:55.172Z,80.83
2019-04-01T04:36:22.952Z,80.67
2019-04-01T04:38:51.053Z,80.08
2019-04-01T04:41:18.819Z,79.98
2019-04-01T04:43:47.784Z,81.78
2019-04-01T04:46:15.569Z,79.93
2019-04-01T04:48:43.523Z,79.42
2019-04-01T04:51:11.447Z,79.05
2019-04-01T04:53:39.466Z,79.46
2019-04-01T04:56:07.343Z,79.44
2019-04-01T04:58:35.141Z,80.04
2019-04-01T05:01:03.286Z,80.02
2019-04-01T05:03:31.264Z,80.08
2019-04-01T05:05:59.093Z,79.11
2019-04-01T05:08:27.419Z,78.92
2019-04-01T05:10:55.260Z,79.43
2019-04-01T05:13:23.364Z,78.74
2019-04-01T05:15:51.350Z,79.17
2019-04-01T05:18:19.462Z,78.39
2019-04-01T05:20:47.341Z,78.57
2019-04-01T05:23:15.231Z,78.39
2019-04-01T05:25:43.367Z,78.30
2019-04-01T05:28:11.535Z,77.50
2019-04-01T05:30:40.633Z,77.21
2019-04-01T05:33:10.967Z,77.28
2019-04-01T05:35:39.223Z,77.14
2019-04-01T05:38:07.236Z,77.46
2019-04-01T05:40:35.241Z,77.17
2019-04-01T05:43:03.255Z,76.92
2019-04-01T05:45:31.226Z,76.80
2019-04-01T05:47:59.034Z,76.61
2019-04-01T05:50:27.081Z,76.28
2019-04-01T05:52:55.252Z,76.14
2019-04-01T05:55:25.132Z,76.29
2019-04-01T05:57:53.125Z,76.15
2019-04-01T06:00:27.122Z,75.59
2019-04-01T06:02:54.880Z,75.81
2019-04-01T06:05:22.886Z,75.33
2019-04-01T06:07:50.720Z,74.55
2019-04-01T06:10:18.819Z,74.91
2019-04-01T06:12:47.832Z,74.30
2019-04-01T06:15:16.696Z,73.51
2019-04-01T06:17:44.655Z,72.76
2019-04-01T06:20:12.739Z,72.62
2019-04-01T06:22:40.655Z,72.46
2019-04-01T06:25:08.869Z,72.81
2019-04-01T06:27:36.798Z,72.85
2019-04-01T06:30:05.133Z,72.65
2019-04-01T06:32:33.387Z,72.40
2019-04-01T06:35:01.394Z,72.39
2019-04-01T06:37:29.363Z,72.34
2019-04-01T06:39:57.406Z,72.37
2019-04-01T06:42:25.775Z,73.15
2019-04-01T06:44:54.009Z,71.89
2019-04-01T06:47:22.073Z,70.88
2019-04-01T06:49:50.211Z,70.61
2019-04-01T06:52:18.161Z,70.35
2019-04-01T06:54:46.345Z,70.58
2019-04-01T06:57:14.226Z,69.97
2019-04-01T06:59:42.087Z,69.73
2019-04-01T07:02:10.041Z,69.06
2019-04-01T07:04:37.919Z,69.05
2019-04-01T07:07:18.302Z,69.00
2019-04-01T07:09:35.488Z,68.51
2019-04-01T07:12:03.478Z,68.60
2019-04-01T07:14:31.373Z,68.85
2019-04-01T07:16:59.316Z,67.45
2019-04-01T07:19:27.060Z,68.09
2019-04-01T07:21:55.198Z,67.27
2019-04-01T07:24:23.291Z,66.40
2019-04-01T07:26:51.354Z,65.50
2019-04-01T07:29:19.526Z,64.33
2019-04-01T07:31:47.431Z,64.43
2019-04-01T07:34:15.289Z,62.06
2019-04-01T07:36:43.324Z,60.41
2019-04-01T07:39:11.305Z,58.93
2019-04-01T07:41:39.427Z,56.73
2019-04-01T07:44:07.315Z,55.91
2019-04-01T07:46:35.352Z,56.64
2019-04-01T07:49:03.222Z,55.59
2019-04-01T07:51:32.324Z,53.18
2019-04-01T07:54:00.290Z,51.27
2019-04-01T07:56:28.272Z,47.32
2019-04-01T07:58:56.366Z,43.76
2019-04-01T08:01:24.399Z,40.07
2019-04-01T08:03:52.312Z,38.07
2019-04-01T08:06:20.224Z,38.72
2019-04-01T08:08:48.263Z,38.27
2019-04-01T08:11:16.269Z,38.29
2019-04-01T08:13:44.262Z,39.35
2019-04-01T08:16:12.596Z,36.55
2019-04-01T08:18:40.459Z,35.41
2019-04-01T08:21:08.728Z,33.50
2019-04-01T08:23:36.647Z,33.56
2019-04-01T08:26:04.611Z,33.39
2019-04-01T08:28:32.624Z,33.04
2019-04-01T08:31:00.543Z,33.33
2019-04-01T08:33:28.428Z,33.41
2019-04-01T08:35:56.387Z,33.55
2019-04-01T08:38:25.403Z,32.77
2019-04-01T08:40:53.341Z,31.99
2019-04-01T08:43:21.211Z,31.86
2019-04-01T08:45:50.528Z,30.83
2019-04-01T08:48:18.329Z,31.27
2019-04-01T08:50:47.415Z,32.69
2019-04-01T08:53:15.319Z,30.66
2019-04-01T08:55:43.222Z,28.10
2019-04-01T08:58:11.238Z,27.39
2019-04-01T09:00:39.297Z,29.52
2019-04-01T09:03:07.034Z,28.44
2019-04-01T09:05:35.274Z,30.51
2019-04-01T09:08:03.312Z,28.46
2019-04-01T09:10:31.650Z,29.52
2019-04-01T09:12:59.858Z,29.83
2019-04-01T09:15:27.948Z,30.84
2019-04-01T09:17:56.075Z,28.12
2019-04-01T09:20:24.174Z,28.74
2019-04-01T09:22:52.310Z,27.75
2019-04-01T09:25:20.498Z,27.57
2019-04-01T09:27:48.559Z,26.09
2019-04-01T09:30:18.652Z,28.05
2019-04-01T09:32:46.836Z,29.72
2019-04-01T09:35:15.935Z,27.95
2019-04-01T09:37:44.177Z,28.32
2019-04-01T09:40:12.250Z,28.91
2019-04-01T09:42:40.155Z,29.65
2019-04-01T09:45:08.388Z,29.96
2019-04-01T09:47:36.298Z,30.42
2019-04-01T09:50:05.039Z,30.62
2019-04-01T09:52:32.977Z,29.25
2019-04-01T09:55:01.037Z,28.99
2019-04-01T09:57:29.967Z,28.77
2019-04-01T09:59:57.908Z,29.55
2019-04-01T10:02:31.987Z,28.79
2019-04-01T10:04:55.984Z,28.10
2019-04-01T10:07:24.105Z,27.86
2019-04-01T10:09:52.113Z,28.71
2019-04-01T10:12:20.269Z,28.82
2019-04-01T10:14:48.297Z,28.29
2019-04-01T10:17:16.337Z,28.07
2019-04-01T10:19:45.458Z,29.20
2019-04-01T10:22:13.534Z,28.80
2019-04-01T10:24:41.472Z,28.43
2019-04-01T10:27:10.616Z,28.63
2019-04-01T10:29:39.087Z,27.49
2019-04-01T10:32:07.069Z,29.16
2019-04-01T10:34:35.364Z,27.95
2019-04-01T10:37:03.703Z,29.04
2019-04-01T10:39:31.584Z,28.02
2019-04-01T10:41:59.549Z,27.87
2019-04-01T10:44:28.491Z,27.54
2019-04-01T10:46:56.576Z,27.89
2019-04-01T10:49:24.582Z,27.61
2019-04-01T10:51:52.744Z,28.50
2019-04-01T10:54:20.777Z,26.96
2019-04-01T10:56:48.779Z,27.87
2019-04-01T10:59:16.656Z,26.79
2019-04-01T11:01:44.860Z,26.39
2019-04-01T11:04:13.020Z,28.31
2019-04-01T11:06:41.021Z,27.35
2019-04-01T11:09:10.052Z,28.12
2019-04-01T11:11:38.033Z,27.96
2019-04-01T11:14:06.209Z,28.88
2019-04-01T11:16:34.118Z,28.14
2019-04-01T11:19:02.423Z,27.21
2019-04-01T11:21:30.318Z,27.97
2019-04-01T11:23:58.197Z,28.04
2019-04-01T11:26:26.445Z,28.81
2019-04-01T11:28:54.552Z,28.53
2019-04-01T11:31:22.635Z,26.51
2019-04-01T11:33:50.638Z,25.85
2019-04-01T11:36:18.803Z,26.03
2019-04-01T11:38:46.765Z,27.16
2019-04-01T11:41:14.960Z,28.44
2019-04-01T11:43:43.291Z,27.15
2019-04-01T11:46:12.652Z,27.22
2019-04-01T11:48:41.472Z,26.94
2019-04-01T11:51:09.585Z,28.01
2019-04-01T11:53:37.675Z,27.24
2019-04-01T11:56:05.768Z,26.27
2019-04-01T11:58:33.791Z,27.27
2019-04-01T12:01:02.180Z,28.84
2019-04-01T12:03:30.398Z,26.36
2019-04-01T12:05:58.400Z,26.07
2019-04-01T12:08:26.495Z,25.61
2019-04-01T12:10:54.551Z,27.63
2019-04-01T12:13:22.498Z,28.26
2019-04-01T12:15:50.566Z,28.49
2019-04-01T12:18:18.504Z,27.35
2019-04-01T12:20:46.615Z,27.30
2019-04-01T12:23:14.542Z,25.71
2019-04-01T12:25:42.881Z,25.95
2019-04-01T12:28:10.888Z,27.37
2019-04-01T12:30:38.786Z,27.57
2019-04-01T12:33:06.699Z,28.10
2019-04-01T12:35:34.828Z,28.49
2019-04-01T12:38:02.862Z,29.27
2019-04-01T12:40:30.894Z,27.13
2019-04-01T12:42:59.246Z,27.53
2019-04-01T12:45:27.424Z,28.05
2019-04-01T12:47:55.318Z,28.32
2019-04-01T12:50:23.369Z,27.19
2019-04-01T12:52:51.355Z,26.61
2019-04-01T12:55:19.446Z,27.83
2019-04-01T12:57:48.569Z,27.99
2019-04-01T13:00:17.586Z,29.66
2019-04-01T13:02:45.699Z,28.37
2019-04-01T13:05:13.737Z,27.18
2019-04-01T13:07:42.614Z,27.34
2019-04-01T13:10:10.722Z,27.23
2019-04-01T13:12:38.712Z,27.75
2019-04-01T13:15:06.771Z,28.27
2019-04-01T13:17:35.035Z,28.91
2019-04-01T13:20:03.350Z,29.98
2019-04-01T13:22:31.443Z,29.62
2019-04-01T13:25:01.544Z,28.60
2019-04-01T13:27:29.781Z,28.33
2019-04-01T13:29:57.653Z,27.96
2019-04-01T13:32:25.625Z,29.43
2019-04-01T13:34:53.501Z,30.77
2019-04-01T13:37:21.511Z,32.96
2019-04-01T13:39:49.466Z,34.61
2019-04-01T13:42:17.355Z,34.83
2019-04-01T13:44:45.393Z,35.54
2019-04-01T13:47:13.134Z,36.34
2019-04-01T13:49:40.999Z,36.00
2019-04-01T13:52:08.879Z,37.97
2019-04-01T13:54:37.032Z,35.21
2019-04-01T13:57:04.883Z,34.06
2019-04-01T13:59:32.872Z,34.59
2019-04-01T14:02:00.727Z,35.43
2019-04-01T14:04:28.495Z,35.21
2019-04-01T14:06:56.635Z,35.62
2019-04-01T14:09:24.537Z,36.09
2019-04-01T14:11:52.605Z,36.97
2019-04-01T14:14:20.491Z,39.78
2019-04-01T14:16:48.552Z,39.94
2019-04-01T14:19:16.623Z,37.18
2019-04-01T14:21:44.610Z,37.18
2019-04-01T14:24:12.568Z,35.92
2019-04-01T14:26:41.092Z,34.90
2019-04-01T14:29:09.133Z,35.18
2019-04-01T14:31:37.204Z,34.60
2019-04-01T14:34:06.383Z,34.49
2019-04-01T14:36:34.557Z,35.54
2019-04-01T14:39:03.652Z,36.94
2019-04-01T14:41:32.057Z,37.71
2019-04-01T14:44:00.133Z,38.29
2019-04-01T14:46:28.271Z,38.88
2019-04-01T14:49:00.154Z,39.28
2019-04-01T14:51:26.298Z,39.47
2019-04-01T14:53:54.254Z,39.45
2019-04-01T14:56:22.140Z,40.87
2019-04-01T14:58:50.189Z,40.69
2019-04-01T15:01:18.436Z,40.27
2019-04-01T15:03:46.371Z,40.48
2019-04-01T15:06:14.354Z,40.80
2019-04-01T15:08:42.379Z,42.02
2019-04-01T15:11:12.223Z,42.43
2019-04-01T15:13:40.798Z,42.23
2019-04-01T15:16:09.026Z,42.49
2019-04-01T15:18:37.060Z,41.76
2019-04-01T15:21:05.063Z,41.84
2019-04-01T15:23:33.260Z,42.86
2019-04-01T15:26:01.161Z,42.50
2019-04-01T15:28:29.132Z,42.42
2019-04-01T15:30:56.964Z,43.37
2019-04-01T15:33:24.880Z,43.99
2019-04-01T15:35:52.852Z,44.29
2019-04-01T15:38:23.880Z,44.05
2019-04-01T15:40:51.864Z,44.60
2019-04-01T15:43:19.815Z,44.37
2019-04-01T15:45:47.794Z,44.56
2019-04-01T15:48:15.617Z,44.74
2019-04-01T15:50:43.517Z,43.91
2019-04-01T15:53:11.410Z,44.68
2019-04-01T15:55:39.425Z,44.60
2019-04-01T15:58:07.278Z,44.52
2019-04-01T16:00:35.300Z,44.96
2019-04-01T16:03:03.510Z,44.42
2019-04-01T16:05:31.716Z,44.84
2019-04-01T16:07:59.626Z,44.66
2019-04-01T16:10:29.328Z,44.89
2019-04-01T16:12:57.457Z,45.15
2019-04-01T16:15:25.691Z,45.19
2019-04-01T16:17:54.259Z,45.61
2019-04-01T16:20:22.197Z,45.85
2019-04-01T16:22:50.429Z,45.40
2019-04-01T16:25:18.624Z,45.70
2019-04-01T16:27:46.661Z,45.03
2019-04-01T16:30:15.169Z,45.89
2019-04-01T16:32:43.190Z,46.08
2019-04-01T16:35:11.337Z,46.18
2019-04-01T16:37:39.311Z,46.35
2019-04-01T16:40:07.503Z,46.64
2019-04-01T16:42:35.770Z,46.98
2019-04-01T16:45:05.273Z,47.12
2019-04-01T16:47:33.497Z,47.01
2019-04-01T16:50:01.815Z,48.98
2019-04-01T16:52:30.866Z,47.67
2019-04-01T16:55:00.622Z,47.91
2019-04-01T16:57:28.422Z,47.97
2019-04-01T16:59:57.139Z,48.25
2019-04-01T17:02:25.121Z,48.36
2019-04-01T17:04:53.009Z,48.58
2019-04-01T17:07:21.046Z,49.11
2019-04-01T17:09:49.106Z,48.97
2019-04-01T17:12:17.178Z,49.14
2019-04-01T17:14:45.086Z,49.18
2019-04-01T17:17:13.500Z,49.39
2019-04-01T17:19:41.686Z,49.42
2019-04-01T17:22:11.445Z,49.60
2019-04-01T17:24:39.639Z,49.58
2019-04-01T17:27:10.398Z,50.22
2019-04-01T17:29:38.480Z,50.19
2019-04-01T17:32:06.439Z,50.61
2019-04-01T17:34:34.461Z,50.96
2019-04-01T17:37:02.441Z,50.81
2019-04-01T17:39:30.458Z,51.74
2019-04-01T17:41:58.347Z,51.25
2019-04-01T17:44:26.312Z,51.30
2019-04-01T17:46:54.409Z,51.23
2019-04-01T17:49:22.467Z,51.35
2019-04-01T17:51:53.699Z,51.39
2019-04-01T17:54:20.265Z,51.44
2019-04-01T17:56:48.474Z,51.58
2019-04-01T17:59:16.554Z,51.58
2019-04-01T18:01:44.623Z,51.70
2019-04-01T18:04:12.879Z,51.97
2019-04-01T18:06:41.010Z,52.18
2019-04-01T18:09:08.908Z,52.35
2019-04-01T18:11:37.004Z,53.14
2019-04-01T18:14:04.983Z,53.55
2019-04-01T18:16:32.905Z,54.48
2019-04-01T18:19:00.836Z,54.44
2019-04-01T18:21:28.825Z,54.54
2019-04-01T18:23:56.865Z,54.96
2019-04-01T18:26:24.875Z,55.23
2019-04-01T18:28:52.875Z,55.16
2019-04-01T18:31:20.762Z,55.73
2019-04-01T18:33:55.997Z,56.43
2019-04-01T18:36:18.760Z,57.01
2019-04-01T18:38:46.704Z,57.24
2019-04-01T18:41:14.679Z,58.03
2019-04-01T18:43:42.728Z,58.39
2019-04-01T18:46:10.979Z,58.57
2019-04-01T18:48:39.812Z,59.03
2019-04-01T18:51:07.797Z,59.32
2019-04-01T18:53:36.308Z,59.60
2019-04-01T18:56:04.557Z,60.09
2019-04-01T18:58:32.643Z,60.71
2019-04-01T19:01:00.700Z,60.76
2019-04-01T19:03:28.967Z,61.10
2019-04-01T19:05:56.897Z,61.29
2019-04-01T19:08:24.753Z,62.69
2019-04-01T19:11:02.105Z,62.40
2019-04-01T19:13:22.723Z,62.84
2019-04-01T19:15:52.580Z,62.72
2019-04-01T19:18:21.445Z,62.07
2019-04-01T19:20:56.172Z,63.45
2019-04-01T19:23:19.551Z,62.93
2019-04-01T19:25:47.747Z,62.86
2019-04-01T19:28:16.040Z,62.53
2019-04-01T19:30:44.045Z,62.28
2019-04-01T19:33:12.096Z,61.86
2019-04-01T19:35:39.877Z,62.58
2019-04-01T19:38:08.146Z,61.79
2019-04-01T19:40:36.126Z,62.28
2019-04-01T19:43:04.220Z,61.37
2019-04-01T19:45:32.428Z,62.48
2019-04-01T19:48:00.452Z,62.08
2019-04-01T19:50:28.841Z,61.83
2019-04-01T19:52:56.925Z,60.23
2019-04-01T19:55:25.014Z,62.99
2019-04-01T19:57:53.128Z,62.38
2019-04-01T20:00:27.784Z,59.83
2019-04-01T20:02:50.974Z,60.04
2019-04-01T20:05:20.188Z,61.01
2019-04-01T20:07:49.085Z,61.54
2019-04-01T20:10:17.579Z,62.11
2019-04-01T20:12:45.886Z,62.70
2019-04-01T20:15:13.848Z,63.08
2019-04-01T20:17:41.812Z,63.97
2019-04-01T20:20:10.360Z,63.96
2019-04-01T20:22:38.365Z,63.93
2019-04-01T20:25:07.060Z,64.90
2019-04-01T20:27:34.947Z,64.79
2019-04-01T20:30:03.541Z,65.22
2019-04-01T20:32:32.792Z,65.71
2019-04-01T20:35:01.026Z,66.11
2019-04-01T20:37:29.545Z,66.12
2019-04-01T20:39:57.672Z,66.43
2019-04-01T20:42:25.767Z,66.70
2019-04-01T20:44:54.099Z,67.02
2019-04-01T20:47:22.336Z,66.78
2019-04-01T20:49:50.427Z,67.08
2019-04-01T20:52:18.551Z,67.26
2019-04-01T20:54:46.527Z,67.72
2019-04-01T20:57:14.497Z,67.74
2019-04-01T20:59:42.672Z,67.86
2019-04-01T21:02:10.683Z,68.06
2019-04-01T21:04:38.770Z,68.03
2019-04-01T21:07:06.664Z,68.15
2019-04-01T21:09:34.813Z,68.57
2019-04-01T21:12:03.173Z,68.87
2019-04-01T21:14:32.306Z,68.75
2019-04-01T21:17:00.543Z,69.14
2019-04-01T21:19:30.997Z,69.08
2019-04-01T21:21:58.998Z,69.41
2019-04-01T21:24:26.939Z,69.08
2019-04-01T21:26:55.102Z,69.01
2019-04-01T21:29:23.850Z,69.36
2019-04-01T21:31:51.920Z,69.64
2019-04-01T21:34:20.187Z,69.27
2019-04-01T21:36:48.233Z,69.34
2019-04-01T21:39:16.327Z,69.88
2019-04-01T21:41:44.419Z,69.73
2019-04-01T21:44:12.415Z,70.05
2019-04-01T21:46:40.287Z,69.97
2019-04-01T21:49:08.415Z,70.25
2019-04-01T21:51:36.303Z,70.27
2019-04-01T21:54:04.277Z,70.51
2019-04-01T21:56:32.160Z,70.58
2019-04-01T21:59:00.238Z,70.39
2019-04-01T22:01:28.300Z,70.75
2019-04-01T22:03:56.310Z,70.91
2019-04-01T22:06:24.143Z,71.36
2019-04-01T22:08:52.131Z,71.20
2019-04-01T22:11:19.787Z,71.29
2019-04-01T22:13:47.863Z,71.32
2019-04-01T22:16:15.716Z,71.33
2019-04-01T22:18:43.594Z,71.33
2019-04-01T22:21:11.736Z,71.44
2019-04-01T22:23:39.724Z,71.85
2019-04-01T22:26:08.727Z,72.05
2019-04-01T22:28:36.671Z,72.07
2019-04-01T22:31:04.518Z,72.09
2019-04-01T22:33:32.581Z,72.16
2019-04-01T22:36:00.555Z,72.36
2019-04-01T22:38:29.694Z,72.68
2019-04-01T22:40:57.616Z,72.92
2019-04-01T22:43:25.835Z,72.91
2019-04-01T22:45:53.945Z,73.18
2019-04-01T22:48:22.064Z,72.79
2019-04-01T22:50:50.090Z,72.78
2019-04-01T22:53:18.138Z,73.09
2019-04-01T22:55:46.259Z,73.38
2019-04-01T22:58:14.267Z,73.19
2019-04-01T23:00:42.073Z,73.22
2019-04-01T23:03:10.440Z,72.78
2019-04-01T23:05:39.249Z,72.90
2019-04-01T23:08:07.388Z,72.47
2019-04-01T23:10:35.142Z,73.03
2019-04-01T23:13:03.118Z,73.23
2019-04-01T23:15:31.053Z,73.35
2019-04-01T23:17:59.058Z,73.52
2019-04-01T23:20:26.921Z,73.92
2019-04-01T23:22:55.100Z,74.37
2019-04-01T23:25:23.314Z,73.62
2019-04-01T23:27:51.260Z,73.39
2019-04-01T23:30:20.422Z,73.55
2019-04-01T23:32:48.783Z,72.78
2019-04-01T23:35:16.741Z,72.14
2019-04-01T23:37:44.799Z,72.34
2019-04-01T23:40:12.852Z,72.59
2019-04-01T23:42:40.998Z,72.95
2019-04-01T23:45:09.919Z,72.96
2019-04-01T23:47:37.941Z,73.12
2019-04-01T23:50:06.861Z,72.40
2019-04-01T23:52:35.911Z,72.73
2019-04-01T23:55:04.002Z,72.27
2019-04-01T23:57:32.103Z,72.35
